Time;durP1;ratioP1;P1;durP2;ratioP2;P2;SDS_P1;SDS_P2;PMS_P1;PMS_P2;Temp;Humidity;BMP_temperature;BMP_pressure;BME280_temperature;BME280_humidity;BME280_pressure;Samples;Min_cycle;Max_cycle;Signal;HPM_P1;HPM_P2
2023/11/24 00:00:36;;;;;;;33.40;19.70;;;;;;;2.10;100.00;99125.20;105666;1253;60304;-79
2023/11/24 00:03:02;;;;;;;29.00;19.40;;;;;;;2.11;100.00;99113.94;105741;1253;70730;-78
2023/11/24 00:05:30;;;;;;;30.80;19.70;;;;;;;2.12;100.00;99106.33;105764;1257;65096;-78
2023/11/24 00:07:57;;;;;;;32.10;19.80;;;;;;;2.13;100.00;99090.10;105640;1256;71368;-80
2023/11/24 00:10:28;;;;;;;32.40;19.00;;;;;;;2.13;100.00;99079.20;105669;1253;59727;-78
2023/11/24 00:12:55;;;;;;;30.60;19.30;;;;;;;2.15;100.00;99071.69;105681;1253;60168;-79
2023/11/24 00:15:23;;;;;;;31.70;20.10;;;;;;;2.15;100.00;99053.40;105634;1253;72851;-79
2023/11/24 00:17:50;;;;;;;26.90;17.00;;;;;;;2.15;100.00;99052.21;105687;1253;63212;-77
2023/11/24 00:20:17;;;;;;;30.70;19.40;;;;;;;2.16;100.00;99054.91;105666;1257;73036;-80
2023/11/24 00:22:44;;;;;;;32.50;18.40;;;;;;;2.17;100.00;99044.02;106961;1253;59698;-78
2023/11/24 00:25:12;;;;;;;26.30;17.30;;;;;;;2.18;100.00;99042.23;106246;1253;59717;-80
2023/11/24 00:27:39;;;;;;;30.80;18.30;;;;;;;2.20;100.00;99041.25;105782;1257;72971;-81
2023/11/24 00:30:07;;;;;;;30.30;19.80;;;;;;;2.23;100.00;99036.80;105626;1258;64014;-79
2023/11/24 00:32:35;;;;;;;28.00;19.30;;;;;;;2.24;100.00;99035.71;105890;1253;72679;-79
2023/11/24 00:35:06;;;;;;;33.50;18.50;;;;;;;2.25;100.00;99028.73;107229;1257;61006;-76
2023/11/24 00:37:33;;;;;;;29.00;17.70;;;;;;;2.27;100.00;99018.34;105751;1253;60284;-79
2023/11/24 00:40:00;;;;;;;31.00;19.50;;;;;;;2.26;100.00;99015.75;105510;1253;71652;-78
2023/11/24 00:42:29;;;;;;;31.60;18.50;;;;;;;2.27;100.00;99008.11;105652;1257;63789;-79
2023/11/24 00:44:57;;;;;;;29.40;17.90;;;;;;;2.28;100.00;99003.23;106182;1253;72750;-77
2023/11/24 00:47:26;;;;;;;30.80;18.20;;;;;;;2.30;100.00;99001.80;105762;1257;61071;-77
2023/11/24 00:49:52;;;;;;;29.60;19.20;;;;;;;2.31;100.00;98999.01;105741;1257;60505;-78
2023/11/24 00:52:19;;;;;;;26.60;17.30;;;;;;;2.31;100.00;99000.89;105779;1253;73868;-78
2023/11/24 00:54:52;;;;;;;30.10;18.90;;;;;;;2.31;100.00;99000.33;105837;1257;64074;-78
2023/11/24 00:57:21;;;;;;;28.20;17.40;;;;;;;2.32;100.00;98999.25;105747;1253;72718;-79
2023/11/24 00:59:49;;;;;;;31.70;19.10;;;;;;;2.33;100.00;98997.84;105756;1253;61142;-81
2023/11/24 01:02:16;;;;;;;29.20;18.00;;;;;;;2.34;100.00;98991.60;105777;1258;60430;-80
2023/11/24 01:04:42;;;;;;;24.10;15.80;;;;;;;2.35;100.00;98983.97;105712;1257;73671;-79
2023/11/24 01:07:10;;;;;;;27.10;17.90;;;;;;;2.36;100.00;98985.45;105740;1256;63837;-77
2023/11/24 01:09:36;;;;;;;24.50;16.70;;;;;;;2.38;100.00;98983.98;105627;1258;71509;-81
2023/11/24 01:12:05;;;;;;;24.20;15.80;;;;;;;2.39;100.00;98981.63;105790;1253;61287;-78
2023/11/24 01:14:32;;;;;;;25.30;16.10;;;;;;;2.41;100.00;98985.66;105798;1253;60550;-80
2023/11/24 01:17:00;;;;;;;25.80;16.80;;;;;;;2.43;100.00;98977.80;105706;1257;73788;-79
2023/11/24 01:19:28;;;;;;;27.90;15.90;;;;;;;2.45;100.00;98973.04;105752;1257;63978;-81
2023/11/24 01:21:56;;;;;;;25.70;16.30;;;;;;;2.47;100.00;98966.24;105748;1257;71366;-79
2023/11/24 01:24:24;;;;;;;24.80;14.70;;;;;;;2.48;100.00;98953.73;105765;1257;61402;-77
2023/11/24 01:26:51;;;;;;;27.00;16.30;;;;;;;2.50;100.00;98943.30;105754;1257;60462;-77
2023/11/24 01:29:18;;;;;;;25.50;17.00;;;;;;;2.52;100.00;98945.61;105744;1253;73938;-77
2023/11/24 01:31:45;;;;;;;23.30;15.60;;;;;;;2.54;100.00;98944.99;106011;1252;63940;-80
2023/11/24 01:34:14;;;;;;;24.20;14.80;;;;;;;2.56;100.00;98936.44;106340;1253;71186;-78
2023/11/24 01:36:44;;;;;;;24.60;16.10;;;;;;;2.57;100.00;98927.21;105930;1252;61198;-80
2023/11/24 01:39:12;;;;;;;23.30;15.20;;;;;;;2.58;100.00;98927.68;105829;1253;60476;-80
2023/11/24 01:41:40;;;;;;;25.30;16.90;;;;;;;2.59;100.00;98920.24;105847;1257;73850;-80
2023/11/24 01:44:08;;;;;;;24.90;15.70;;;;;;;2.60;100.00;98911.02;105800;1253;62378;-79
2023/11/24 01:46:35;;;;;;;24.50;16.00;;;;;;;2.60;100.00;98907.74;105855;1257;72683;-79
2023/11/24 01:49:03;;;;;;;27.10;17.20;;;;;;;2.61;100.00;98905.61;105587;1258;60882;-80
2023/11/24 01:51:30;;;;;;;24.90;15.40;;;;;;;2.62;100.00;98899.01;105394;1260;60575;-80
2023/11/24 01:53:57;;;;;;;23.70;15.70;;;;;;;2.62;100.00;98891.94;105588;1257;73692;-83
2023/11/24 01:56:23;;;;;;;25.90;16.00;;;;;;;2.63;100.00;98892.77;105510;1252;62742;-80
2023/11/24 01:58:52;;;;;;;21.20;15.30;;;;;;;2.63;100.00;98882.59;105585;1258;70332;-82
2023/11/24 02:01:21;;;;;;;26.70;16.70;;;;;;;2.62;100.00;98869.85;105694;1257;61060;-78
2023/11/24 02:03:48;;;;;;;25.80;16.70;;;;;;;2.61;100.00;98865.39;105625;1253;60484;-77
2023/11/24 02:06:15;;;;;;;24.90;16.10;;;;;;;2.61;100.00;98859.25;105539;1253;74067;-80
2023/11/24 02:08:42;;;;;;;25.70;15.80;;;;;;;2.60;100.00;98860.64;105630;1257;63853;-77
2023/11/24 02:11:09;;;;;;;25.10;16.60;;;;;;;2.60;100.00;98866.48;105602;1253;72682;-78
2023/11/24 02:13:37;;;;;;;27.80;18.10;;;;;;;2.60;100.00;98874.63;105367;1260;61210;-77
2023/11/24 02:16:04;;;;;;;24.60;15.60;;;;;;;2.60;100.00;98875.65;105740;1253;60467;-80
2023/11/24 02:18:31;;;;;;;23.70;15.10;;;;;;;2.60;100.00;98871.18;105783;1252;73955;-79
2023/11/24 02:21:00;;;;;;;26.60;17.90;;;;;;;2.60;100.00;98868.95;105719;1257;62506;-79
2023/11/24 02:23:27;;;;;;;25.40;16.50;;;;;;;2.60;100.00;98868.07;105922;1253;72443;-78
2023/11/24 02:25:54;;;;;;;28.30;17.50;;;;;;;2.60;100.00;98869.95;105737;1256;61238;-80
2023/11/24 02:28:21;;;;;;;30.00;17.80;;;;;;;2.60;100.00;98862.90;105615;1253;60534;-80
2023/11/24 02:30:48;;;;;;;23.90;16.40;;;;;;;2.59;100.00;98859.30;105718;1254;73925;-79
2023/11/24 02:33:16;;;;;;;23.00;14.70;;;;;;;2.59;100.00;98849.65;105686;1258;63641;-78
2023/11/24 02:35:43;;;;;;;26.40;16.30;;;;;;;2.59;100.00;98847.45;105571;1253;72458;-79
2023/11/24 02:38:11;;;;;;;23.60;15.90;;;;;;;2.59;100.00;98842.23;105642;1253;60621;-79
2023/11/24 02:40:40;;;;;;;23.90;14.90;;;;;;;2.58;100.00;98843.16;105667;1253;60301;-77
2023/11/24 02:43:07;;;;;;;23.80;16.50;;;;;;;2.58;100.00;98846.62;106575;1253;73900;-77
2023/11/24 02:45:35;;;;;;;21.70;14.80;;;;;;;2.58;100.00;98841.25;106131;1257;62948;-79
2023/11/24 02:48:03;;;;;;;21.90;14.70;;;;;;;2.59;100.00;98838.45;105932;1258;72476;-78
2023/11/24 02:50:33;;;;;;;24.60;17.00;;;;;;;2.60;100.00;98839.27;105728;1253;61313;-79
2023/11/24 02:53:00;;;;;;;29.70;17.00;;;;;;;2.60;100.00;98835.26;106106;1253;60445;-78
2023/11/24 02:55:27;;;;;;;22.20;14.80;;;;;;;2.62;100.00;98825.19;106312;1253;72829;-79
2023/11/24 02:57:54;;;;;;;22.20;15.00;;;;;;;2.63;100.00;98828.58;105929;1256;63843;-78
2023/11/24 03:00:21;;;;;;;22.80;15.10;;;;;;;2.64;100.00;98815.39;105999;1258;72497;-77
2023/11/24 03:02:48;;;;;;;20.90;13.20;;;;;;;2.65;100.00;98817.08;106694;1257;61219;-77
2023/11/24 03:05:15;;;;;;;23.20;14.80;;;;;;;2.67;100.00;98806.09;106545;1257;60379;-78
2023/11/24 03:07:42;;;;;;;26.00;17.50;;;;;;;2.68;100.00;98807.38;106068;1254;73890;-80
2023/11/24 03:10:09;;;;;;;26.90;17.80;;;;;;;2.72;100.00;98805.81;105752;1257;63782;-78
2023/11/24 03:12:37;;;;;;;22.10;15.20;;;;;;;2.74;100.00;98802.56;106309;1258;72674;-78
2023/11/24 03:15:05;;;;;;;20.00;13.30;;;;;;;2.77;100.00;98801.56;106077;1256;60603;-78
2023/11/24 03:17:34;;;;;;;20.80;13.90;;;;;;;2.78;100.00;98798.36;106016;1258;60408;-80
2023/11/24 03:20:03;;;;;;;21.60;14.40;;;;;;;2.80;100.00;98794.98;105775;1257;73856;-80
2023/11/24 03:22:31;;;;;;;20.80;13.80;;;;;;;2.82;100.00;98793.64;105684;1253;63924;-79
2023/11/24 03:24:58;;;;;;;24.20;15.30;;;;;;;2.83;100.00;98779.44;105720;1253;72393;-79
2023/11/24 03:27:27;;;;;;;21.10;14.30;;;;;;;2.85;100.00;98781.59;105673;1255;61240;-79
2023/11/24 03:29:54;;;;;;;20.20;14.00;;;;;;;2.86;100.00;98775.27;105871;1253;60352;-81
2023/11/24 03:32:21;;;;;;;19.70;14.40;;;;;;;2.86;100.00;98765.10;105760;1253;73799;-79
2023/11/24 03:34:48;;;;;;;19.60;13.80;;;;;;;2.86;100.00;98763.55;105740;1257;64371;-78
2023/11/24 03:37:16;;;;;;;20.20;13.00;;;;;;;2.87;100.00;98759.36;105675;1253;72311;-79
2023/11/24 03:39:43;;;;;;;21.00;13.90;;;;;;;2.88;100.00;98759.66;105681;1258;61258;-78
2023/11/24 03:42:11;;;;;;;19.80;12.90;;;;;;;2.89;100.00;98753.04;105563;1253;60906;-78
2023/11/24 03:44:39;;;;;;;20.80;13.90;;;;;;;2.90;100.00;98750.21;105668;1253;72908;-79
2023/11/24 03:47:07;;;;;;;20.10;13.60;;;;;;;2.91;100.00;98747.42;105754;1257;62956;-78
2023/11/24 03:49:34;;;;;;;20.50;12.70;;;;;;;2.91;100.00;98751.37;105617;1253;71315;-78
2023/11/24 03:52:01;;;;;;;20.20;13.20;;;;;;;2.92;100.00;98759.09;105526;1256;60624;-80
2023/11/24 03:54:29;;;;;;;22.00;13.70;;;;;;;2.92;100.00;98757.36;105616;1253;60613;-80
2023/11/24 03:56:55;;;;;;;19.60;13.10;;;;;;;2.93;100.00;98748.70;105763;1257;73633;-79
2023/11/24 03:59:23;;;;;;;19.50;12.30;;;;;;;2.93;100.00;98748.55;105893;1257;63777;-80
2023/11/24 04:01:50;;;;;;;16.50;11.60;;;;;;;2.93;100.00;98749.91;105906;1258;72594;-78
2023/11/24 04:04:18;;;;;;;18.20;11.70;;;;;;;2.93;100.00;98751.60;106131;1253;60437;-78
2023/11/24 04:06:44;;;;;;;17.70;12.20;;;;;;;2.95;100.00;98746.67;105792;1253;60466;-78
2023/11/24 04:09:11;;;;;;;20.70;12.70;;;;;;;2.97;100.00;98750.70;105588;1253;73799;-77
2023/11/24 04:11:39;;;;;;;22.40;13.50;;;;;;;2.98;100.00;98750.63;105619;1253;63966;-79
2023/11/24 04:14:06;;;;;;;20.30;12.70;;;;;;;2.99;100.00;98744.33;105812;1253;71248;-79
2023/11/24 04:16:33;;;;;;;18.00;11.20;;;;;;;3.00;100.00;98739.14;105680;1258;60461;-78
2023/11/24 04:19:00;;;;;;;19.20;12.90;;;;;;;3.01;100.00;98738.23;105739;1253;60485;-78
2023/11/24 04:21:27;;;;;;;17.20;11.30;;;;;;;3.01;100.00;98735.23;105723;1254;72627;-78
2023/11/24 04:23:54;;;;;;;18.80;12.90;;;;;;;3.02;100.00;98738.45;105479;1258;62368;-78
2023/11/24 04:26:21;;;;;;;23.00;14.50;;;;;;;3.04;100.00;98727.65;105767;1253;72436;-78
2023/11/24 04:28:50;;;;;;;22.90;14.60;;;;;;;3.06;100.00;98728.41;105798;1258;60881;-79
2023/11/24 04:31:17;;;;;;;22.60;15.20;;;;;;;3.08;100.00;98735.70;105647;1257;60391;-80
2023/11/24 04:33:44;;;;;;;24.50;16.90;;;;;;;3.09;100.00;98728.17;105752;1258;72398;-79
2023/11/24 04:36:14;;;;;;;29.10;17.10;;;;;;;3.11;100.00;98727.56;105615;1258;63999;-78
2023/11/24 04:38:41;;;;;;;20.30;13.60;;;;;;;3.11;100.00;98722.03;105649;1253;73625;-77
2023/11/24 04:41:09;;;;;;;22.80;13.50;;;;;;;3.13;100.00;98716.25;105615;1257;61449;-79
2023/11/24 04:43:38;;;;;;;18.50;12.60;;;;;;;3.15;100.00;98713.21;105727;1253;60804;-81
2023/11/24 04:46:09;;;;;;;19.70;13.10;;;;;;;3.16;100.00;98708.14;105802;1253;73609;-79
2023/11/24 04:48:39;;;;;;;15.90;11.50;;;;;;;3.18;100.00;98705.42;105572;1258;63598;-79
2023/11/24 04:51:06;;;;;;;19.50;12.50;;;;;;;3.19;100.00;98706.91;105981;1253;71389;-77
2023/11/24 04:53:33;;;;;;;18.20;12.50;;;;;;;3.19;100.00;98705.54;105825;1258;60526;-77
2023/11/24 04:56:00;;;;;;;18.90;13.60;;;;;;;3.18;100.00;98705.09;105737;1257;60358;-77
2023/11/24 04:58:27;;;;;;;18.70;12.90;;;;;;;3.17;100.00;98706.66;106146;1258;73862;-77
2023/11/24 05:00:55;;;;;;;19.80;13.00;;;;;;;3.17;100.00;98707.74;106132;1257;62260;-78
2023/11/24 05:03:22;;;;;;;18.90;12.80;;;;;;;3.18;100.00;98704.75;105795;1258;72734;-78
2023/11/24 05:05:49;;;;;;;16.00;11.70;;;;;;;3.19;100.00;98703.98;105831;1258;61080;-78
2023/11/24 05:08:16;;;;;;;17.70;11.00;;;;;;;3.19;100.00;98702.10;105758;1255;60566;-81
2023/11/24 05:10:43;;;;;;;14.60;10.40;;;;;;;3.19;100.00;98696.69;106120;1253;73779;-80
2023/11/24 05:13:11;;;;;;;16.10;10.10;;;;;;;3.18;100.00;98704.54;105974;1257;63979;-80
2023/11/24 05:15:38;;;;;;;17.10;11.20;;;;;;;3.20;100.00;98699.44;105760;1253;73098;-80
2023/11/24 05:18:07;;;;;;;16.80;10.80;;;;;;;3.20;100.00;98699.73;105929;1257;60916;-81
2023/11/24 05:20:34;;;;;;;18.10;12.20;;;;;;;3.21;100.00;98697.14;105729;1253;60432;-82
2023/11/24 05:23:01;;;;;;;14.80;10.70;;;;;;;3.21;100.00;98709.39;105816;1253;73775;-80
2023/11/24 05:25:28;;;;;;;18.90;10.70;;;;;;;3.21;100.00;98706.76;105756;1258;63937;-80
2023/11/24 05:27:55;;;;;;;17.90;10.90;;;;;;;3.22;100.00;98709.48;105629;1257;72688;-81
2023/11/24 05:30:22;;;;;;;16.60;11.00;;;;;;;3.22;100.00;98708.07;105721;1257;60961;-81
2023/11/24 05:32:50;;;;;;;18.50;11.30;;;;;;;3.23;100.00;98697.20;105718;1259;60543;-82
2023/11/24 05:35:17;;;;;;;20.50;12.30;;;;;;;3.23;100.00;98705.63;105672;1257;73788;-81
2023/11/24 05:37:44;;;;;;;17.70;11.90;;;;;;;3.23;100.00;98702.65;105740;1253;62577;-79
2023/11/24 05:40:12;;;;;;;21.20;12.30;;;;;;;3.25;100.00;98696.52;106174;1253;72647;-79
2023/11/24 05:42:40;;;;;;;17.40;11.70;;;;;;;3.27;100.00;98691.52;105820;1257;62043;-80
2023/11/24 05:45:08;;;;;;;18.00;11.70;;;;;;;3.29;100.00;98693.81;105785;1253;60414;-80
2023/11/24 05:47:36;;;;;;;18.40;11.30;;;;;;;3.32;100.00;98689.16;105805;1258;73846;-81
2023/11/24 05:50:07;;;;;;;20.80;11.80;;;;;;;3.35;100.00;98700.09;105855;1257;63924;-80
2023/11/24 05:52:35;;;;;;;18.30;11.40;;;;;;;3.38;100.00;98707.66;105888;1257;72715;-80
2023/11/24 05:55:06;;;;;;;16.90;10.20;;;;;;;3.41;100.00;98707.48;105735;1253;60464;-78
2023/11/24 05:57:33;;;;;;;19.40;10.70;;;;;;;3.43;100.00;98710.12;105788;1253;60935;-79
2023/11/24 06:00:00;;;;;;;20.40;11.20;;;;;;;3.46;100.00;98713.20;105842;1253;71410;-80
2023/11/24 06:02:37;;;;;;;20.30;11.40;;;;;;;3.48;100.00;98710.80;105806;1257;63956;-79
2023/11/24 06:05:05;;;;;;;19.80;12.40;;;;;;;3.49;100.00;98712.98;105706;1253;72716;-80
2023/11/24 06:07:32;;;;;;;16.30;11.10;;;;;;;3.48;100.00;98716.05;105767;1257;61129;-78
2023/11/24 06:10:00;;;;;;;17.10;11.90;;;;;;;3.45;100.00;98713.44;105903;1257;60569;-80
2023/11/24 06:12:32;;;;;;;18.20;11.30;;;;;;;3.44;100.00;98709.88;105776;1253;73759;-81
2023/11/24 06:14:59;;;;;;;16.40;11.70;;;;;;;3.43;100.00;98704.27;105903;1252;63965;-79
2023/11/24 06:17:26;;;;;;;22.50;13.50;;;;;;;3.41;100.00;98700.88;105697;1253;73123;-79
2023/11/24 06:19:53;;;;;;;20.30;12.70;;;;;;;3.42;100.00;98698.09;105671;1257;60864;-77
2023/11/24 06:22:21;;;;;;;17.20;12.50;;;;;;;3.43;100.00;98696.13;105804;1253;60547;-81
2023/11/24 06:24:48;;;;;;;18.10;13.50;;;;;;;3.43;100.00;98704.08;105708;1258;73639;-82
2023/11/24 06:27:15;;;;;;;18.20;12.90;;;;;;;3.43;100.00;98707.02;106024;1254;62335;-80
2023/11/24 06:29:42;;;;;;;20.10;13.70;;;;;;;3.42;100.00;98704.25;106449;1258;73079;-78
2023/11/24 06:32:11;;;;;;;24.20;16.90;;;;;;;3.43;100.00;98698.36;106259;1256;61015;-80
2023/11/24 06:34:38;;;;;;;23.10;14.80;;;;;;;3.45;100.00;98697.54;105724;1259;60639;-79
2023/11/24 06:37:06;;;;;;;22.90;15.30;;;;;;;3.46;100.00;98693.69;105800;1255;74085;-81
2023/11/24 06:39:33;;;;;;;22.50;14.50;;;;;;;3.50;100.00;98694.66;105612;1258;64024;-78
2023/11/24 06:42:00;;;;;;;20.10;14.50;;;;;;;3.52;100.00;98682.58;105719;1253;72800;-80
2023/11/24 06:44:27;;;;;;;19.60;14.00;;;;;;;3.57;100.00;98678.99;105737;1258;61229;-77
2023/11/24 06:46:54;;;;;;;22.70;16.60;;;;;;;3.63;100.00;98679.48;105735;1254;60313;-78
2023/11/24 06:49:21;;;;;;;19.70;14.40;;;;;;;3.68;100.00;98666.94;105673;1254;74285;-79
2023/11/24 06:51:50;;;;;;;21.50;15.00;;;;;;;3.71;100.00;98651.71;105725;1258;63928;-78
2023/11/24 06:54:17;;;;;;;19.30;13.80;;;;;;;3.71;100.00;98649.27;105755;1253;72690;-78
2023/11/24 06:56:44;;;;;;;19.50;13.20;;;;;;;3.69;100.00;98646.83;105744;1254;60579;-80
2023/11/24 06:59:11;;;;;;;18.60;13.10;;;;;;;3.64;100.00;98646.12;105760;1253;60461;-77
2023/11/24 07:01:38;;;;;;;17.00;13.30;;;;;;;3.62;100.00;98641.55;105692;1257;73999;-78
2023/11/24 07:04:05;;;;;;;19.70;12.90;;;;;;;3.64;100.00;98637.95;106513;1253;63102;-79
2023/11/24 07:06:34;;;;;;;21.00;14.10;;;;;;;3.71;100.00;98624.52;106296;1253;72726;-81
2023/11/24 07:09:01;;;;;;;19.90;13.70;;;;;;;3.80;100.00;98629.34;105853;1259;60546;-80
2023/11/24 07:11:28;;;;;;;22.40;14.50;;;;;;;3.90;100.00;98624.41;105673;1257;60317;-80
2023/11/24 07:13:55;;;;;;;23.40;14.70;;;;;;;4.00;100.00;98621.00;105762;1253;73670;-78
2023/11/24 07:16:23;;;;;;;15.90;12.40;;;;;;;4.09;100.00;98609.84;106022;1253;62868;-80
2023/11/24 07:18:50;;;;;;;17.40;12.60;;;;;;;4.19;100.00;98613.20;106328;1256;72896;-79
2023/11/24 07:21:17;;;;;;;16.60;12.40;;;;;;;4.28;100.00;98612.21;105736;1257;60475;-79
2023/11/24 07:23:44;;;;;;;17.20;12.50;;;;;;;4.39;100.00;98613.58;105761;1253;60458;-80
2023/11/24 07:26:18;;;;;;;20.70;14.20;;;;;;;4.47;100.00;98607.00;105905;1253;73903;-80
2023/11/24 07:28:46;;;;;;;19.20;12.50;;;;;;;4.52;100.00;98610.64;105811;1256;63722;-80
2023/11/24 07:31:20;;;;;;;18.00;12.00;;;;;;;4.55;100.00;98591.91;105618;1257;72678;-78
2023/11/24 07:33:49;;;;;;;16.00;11.50;;;;;;;4.54;100.00;98586.73;105748;1257;61083;-81
2023/11/24 07:36:18;;;;;;;16.60;11.60;;;;;;;4.54;100.00;98584.86;105756;1253;60486;-79
2023/11/24 07:38:46;;;;;;;17.50;12.70;;;;;;;4.56;100.00;98588.38;105827;1258;73792;-80
2023/11/24 07:41:14;;;;;;;18.80;12.90;;;;;;;4.56;100.00;98577.98;105724;1257;63232;-81
2023/11/24 07:43:42;;;;;;;19.00;12.70;;;;;;;4.56;100.00;98577.47;105691;1258;72590;-80
2023/11/24 07:46:10;;;;;;;21.80;14.00;;;;;;;4.55;100.00;98577.88;105716;1253;60979;-80
2023/11/24 07:48:37;;;;;;;20.00;13.00;;;;;;;4.54;100.00;98574.11;105745;1254;60553;-79
2023/11/24 07:51:05;;;;;;;16.80;11.90;;;;;;;4.54;100.00;98576.35;105728;1253;73846;-77
2023/11/24 07:53:33;;;;;;;20.70;12.90;;;;;;;4.54;100.00;98578.09;105563;1253;63751;-78
2023/11/24 07:56:00;;;;;;;18.60;13.50;;;;;;;4.54;100.00;98570.48;105723;1257;72650;-79
2023/11/24 07:58:28;;;;;;;20.70;12.90;;;;;;;4.56;100.00;98575.21;105452;1259;60991;-77
2023/11/24 08:00:55;;;;;;;22.60;14.60;;;;;;;4.59;100.00;98573.61;105700;1258;61446;-77
2023/11/24 08:03:24;;;;;;;21.60;13.30;;;;;;;4.65;100.00;98574.23;105681;1258;73817;-80
2023/11/24 08:05:52;;;;;;;19.70;13.40;;;;;;;4.70;100.00;98577.55;105844;1255;62576;-79
2023/11/24 08:08:20;;;;;;;20.40;12.40;;;;;;;4.75;100.00;98581.00;105834;1257;72516;-80
2023/11/24 08:10:48;;;;;;;19.20;12.70;;;;;;;4.77;100.00;98579.81;105734;1258;61174;-77
2023/11/24 08:13:15;;;;;;;21.00;13.30;;;;;;;4.79;100.00;98578.84;105777;1258;60534;-81
2023/11/24 08:15:43;;;;;;;15.40;11.20;;;;;;;4.78;100.00;98569.68;105800;1254;74499;-78
2023/11/24 08:18:10;;;;;;;16.90;11.80;;;;;;;4.75;100.00;98565.59;105790;1257;63734;-78
2023/11/24 08:20:37;;;;;;;14.50;10.90;;;;;;;4.71;100.00;98557.70;105751;1257;72540;-79
2023/11/24 08:23:05;;;;;;;17.30;12.20;;;;;;;4.69;100.00;98556.67;105761;1258;61161;-79
2023/11/24 08:25:32;;;;;;;18.70;12.00;;;;;;;4.68;100.00;98548.73;105802;1253;60819;-79
2023/11/24 08:27:59;;;;;;;16.60;11.00;;;;;;;4.70;100.00;98543.41;105742;1253;73462;-80
2023/11/24 08:30:26;;;;;;;17.50;12.50;;;;;;;4.75;100.00;98544.64;105597;1257;63838;-79
2023/11/24 08:32:53;;;;;;;18.00;11.60;;;;;;;4.84;100.00;98538.35;105652;1253;72689;-80
2023/11/24 08:35:20;;;;;;;17.60;12.30;;;;;;;4.90;100.00;98530.30;105635;1258;60881;-79
2023/11/24 08:37:48;;;;;;;16.00;11.20;;;;;;;4.92;100.00;98517.30;105679;1259;60482;-78
2023/11/24 08:40:16;;;;;;;16.50;12.00;;;;;;;4.93;100.00;98510.14;105523;1259;73801;-79
2023/11/24 08:42:44;;;;;;;17.50;11.90;;;;;;;4.91;100.00;98504.39;105736;1257;63878;-78
2023/11/24 08:45:14;;;;;;;17.40;13.00;;;;;;;4.91;100.00;98515.30;105663;1257;72513;-79
2023/11/24 08:47:41;;;;;;;22.90;13.40;;;;;;;4.92;100.00;98522.54;105797;1258;62160;-79
2023/11/24 08:50:10;;;;;;;18.80;13.60;;;;;;;4.90;100.00;98523.55;105671;1253;60426;-77
2023/11/24 08:55:50;;;;;;;18.50;12.20;;;;;;;4.93;100.00;98518.31;102573;1295;602990;-76
2023/11/24 08:58:18;;;;;;;19.40;13.20;;;;;;;4.92;100.00;98509.52;105003;1266;60510;-80
2023/11/24 09:00:45;;;;;;;18.50;11.70;;;;;;;4.93;100.00;98513.42;104899;1266;60223;-77
2023/11/24 09:03:13;;;;;;;19.50;13.90;;;;;;;4.94;100.00;98512.88;104932;1267;72086;-79
2023/11/24 09:05:41;;;;;;;22.60;13.90;;;;;;;4.94;100.00;98512.52;104947;1270;63894;-79
2023/11/24 09:08:09;;;;;;;19.20;12.90;;;;;;;4.94;100.00;98506.80;104814;1267;222803;-79
2023/11/24 09:10:36;;;;;;;15.90;11.80;;;;;;;4.95;100.00;98503.80;105115;1268;61283;-77
2023/11/24 09:13:04;;;;;;;17.50;12.50;;;;;;;4.96;100.00;98496.95;105841;1251;60200;-79
2023/11/24 09:15:31;;;;;;;19.20;13.20;;;;;;;4.99;100.00;98492.77;105834;1253;71127;-79
2023/11/24 09:17:58;;;;;;;22.40;14.80;;;;;;;4.99;100.00;98495.70;105830;1255;62735;-79
2023/11/24 09:20:25;;;;;;;26.60;17.30;;;;;;;4.98;100.00;98495.29;105909;1256;72657;-79
2023/11/24 09:22:53;;;;;;;26.00;14.90;;;;;;;4.97;100.00;98505.20;105955;1255;61206;-80
2023/11/24 09:25:21;;;;;;;25.60;16.40;;;;;;;4.96;100.00;98522.42;105908;1251;60191;-79
2023/11/24 09:27:48;;;;;;;20.10;14.00;;;;;;;4.96;100.00;98535.89;105843;1251;72880;-77
2023/11/24 09:30:16;;;;;;;17.20;12.30;;;;;;;4.98;100.00;98537.31;105820;1257;63831;-79
2023/11/24 09:32:47;;;;;;;16.20;12.30;;;;;;;4.98;100.00;98540.80;105836;1256;72746;-79
2023/11/24 09:35:14;;;;;;;18.30;12.80;;;;;;;4.98;100.00;98538.69;105878;1251;59949;-77
2023/11/24 09:37:41;;;;;;;19.40;12.30;;;;;;;5.02;100.00;98538.65;105837;1256;59649;-78
2023/11/24 09:40:14;;;;;;;19.40;13.00;;;;;;;5.04;100.00;98536.10;105814;1252;71544;-79
2023/11/24 09:42:44;;;;;;;19.20;12.50;;;;;;;5.05;100.00;98527.54;105933;1256;63948;-80
2023/11/24 09:45:15;;;;;;;23.40;13.50;;;;;;;5.04;100.00;98528.76;105940;1251;70768;-78
2023/11/24 09:47:49;;;;;;;19.10;13.30;;;;;;;5.05;100.00;98533.18;105751;1251;60909;-79
2023/11/24 09:50:25;;;;;;;16.10;11.90;;;;;;;5.09;100.00;98541.05;105908;1251;59647;-79
2023/11/24 09:52:58;;;;;;;19.00;13.50;;;;;;;5.12;100.00;98539.30;105866;1251;72819;-79
2023/11/24 09:55:27;;;;;;;20.50;12.40;;;;;;;5.17;100.00;98536.15;105905;1252;63894;-78
2023/11/24 09:57:56;;;;;;;15.10;11.30;;;;;;;5.26;100.00;98540.40;105898;1256;72444;-79
2023/11/24 10:00:25;;;;;;;21.10;11.80;;;;;;;5.35;100.00;98543.88;105896;1255;61303;-78
2023/11/24 10:02:56;;;;;;;16.60;10.50;;;;;;;5.45;100.00;98548.04;105836;1256;61635;-79
2023/11/24 10:05:26;;;;;;;15.60;11.00;;;;;;;5.53;100.00;98545.55;105737;1251;73041;-77
2023/11/24 10:07:53;;;;;;;12.10;9.80;;;;;;;5.60;100.00;98539.31;106001;1255;64775;-77
2023/11/24 10:10:22;;;;;;;15.90;11.10;;;;;;;5.66;100.00;98535.71;106140;1255;72667;-77
2023/11/24 10:12:53;;;;;;;13.90;10.30;;;;;;;5.71;100.00;98535.92;106158;1251;62098;-77
2023/11/24 10:15:23;;;;;;;16.40;11.40;;;;;;;5.74;100.00;98536.36;105911;1256;60112;-79
2023/11/24 10:17:50;;;;;;;15.20;10.30;;;;;;;5.76;100.00;98528.38;105914;1253;71738;-80
2023/11/24 10:20:22;;;;;;;11.40;9.70;;;;;;;5.82;100.00;98532.32;106017;1253;63931;-79
2023/11/24 10:22:52;;;;;;;17.50;11.60;;;;;;;5.88;100.00;98540.38;105885;1251;72535;-79
2023/11/24 10:25:20;;;;;;;12.60;9.10;;;;;;;5.93;100.00;98549.89;105943;1257;60868;-78
2023/11/24 10:27:47;;;;;;;20.10;11.20;;;;;;;5.97;100.00;98542.13;105995;1255;59548;-78
2023/11/24 10:30:14;;;;;;;16.10;11.30;;;;;;;5.98;100.00;98542.73;106011;1256;74047;-78
2023/11/24 10:32:45;;;;;;;15.90;10.60;;;;;;;5.99;100.00;98541.11;106002;1256;63905;-77
2023/11/24 10:35:12;;;;;;;14.80;10.40;;;;;;;6.00;100.00;98540.20;106313;1255;72771;-79
2023/11/24 10:37:44;;;;;;;16.20;11.00;;;;;;;6.01;100.00;98544.65;105791;1256;61442;-78
2023/11/24 10:40:15;;;;;;;15.30;9.70;;;;;;;6.04;100.00;98547.59;105921;1251;61383;-79
2023/11/24 10:42:47;;;;;;;14.00;9.00;;;;;;;6.06;100.00;98541.51;105947;1256;72911;-80
2023/11/24 10:45:19;;;;;;;14.00;9.90;;;;;;;6.10;100.00;98544.33;105900;1255;65105;-80
2023/11/24 10:48:11;;;;;;;12.20;9.10;;;;;;;6.14;100.00;98541.80;105921;1251;70802;-80
2023/11/24 10:50:42;;;;;;;42.60;25.60;;;;;;;6.18;100.00;98532.41;105968;1255;61207;-79
2023/11/24 10:53:38;;;;;;;25.00;15.40;;;;;;;6.21;100.00;98531.48;105851;1256;60254;-78
2023/11/24 10:56:06;;;;;;;21.70;10.20;;;;;;;6.26;100.00;98537.60;105700;1257;71008;-80
2023/11/24 10:58:33;;;;;;;14.80;9.70;;;;;;;6.26;100.00;98540.16;105853;1251;62028;-79
2023/11/24 11:01:02;;;;;;;14.50;9.50;;;;;;;6.27;100.00;98544.08;106211;1251;72642;-76
2023/11/24 11:03:30;;;;;;;12.50;9.50;;;;;;;6.27;100.00;98534.73;105863;1251;59629;-79
2023/11/24 11:06:00;;;;;;;23.00;13.50;;;;;;;6.23;100.00;98531.19;105910;1256;60181;-80
2023/11/24 11:08:42;;;;;;;17.00;11.20;;;;;;;6.15;100.00;98531.25;105943;1255;74201;-79
2023/11/24 11:12:03;;;;;;;17.40;10.40;;;;;;;6.07;100.00;98535.16;105993;1256;63905;-79
2023/11/24 11:14:30;;;;;;;15.10;9.40;;;;;;;6.00;100.00;98525.79;105514;1259;72869;-80
2023/11/24 11:16:57;;;;;;;15.70;8.60;;;;;;;5.98;100.00;98525.61;105482;1260;59852;-81